sensor_id;sensor_type;location;lat;lon;timestamp;P1;durP1;ratioP1;P2;durP2;ratioP2
34019;SDS011;20895;51.034;3.742;2022-09-09T00:09:22;5.15;;;2.15;;
34019;SDS011;20895;51.034;3.742;2022-09-09T00:11:52;8.13;;;2.10;;
34019;SDS011;20895;51.034;3.742;2022-09-09T00:14:20;8.60;;;2.15;;
34019;SDS011;20895;51.034;3.742;2022-09-09T00:16:50;3.70;;;1.90;;
34019;SDS011;20895;51.034;3.742;2022-09-09T00:21:45;6.93;;;2.00;;
34019;SDS011;20895;51.034;3.742;2022-09-09T00:24:23;7.07;;;2.15;;
34019;SDS011;20895;51.034;3.742;2022-09-09T00:26:51;5.30;;;2.20;;
34019;SDS011;20895;51.034;3.742;2022-09-09T00:29:22;5.57;;;1.70;;
34019;SDS011;20895;51.034;3.742;2022-09-09T00:31:50;3.17;;;1.55;;
34019;SDS011;20895;51.034;3.742;2022-09-09T00:34:21;6.00;;;2.38;;
34019;SDS011;20895;51.034;3.742;2022-09-09T00:36:48;3.50;;;1.73;;
34019;SDS011;20895;51.034;3.742;2022-09-09T00:39:36;5.95;;;2.10;;
34019;SDS011;20895;51.034;3.742;2022-09-09T00:42:16;7.30;;;2.25;;
34019;SDS011;20895;51.034;3.742;2022-09-09T00:57:52;3.03;;;1.85;;
34019;SDS011;20895;51.034;3.742;2022-09-09T01:00:19;7.43;;;2.20;;
34019;SDS011;20895;51.034;3.742;2022-09-09T01:05:27;5.95;;;1.83;;
34019;SDS011;20895;51.034;3.742;2022-09-09T01:07:55;5.88;;;1.70;;
34019;SDS011;20895;51.034;3.742;2022-09-09T01:10:48;5.40;;;1.98;;
34019;SDS011;20895;51.034;3.742;2022-09-09T01:13:13;8.27;;;2.03;;
34019;SDS011;20895;51.034;3.742;2022-09-09T01:15:40;6.35;;;2.35;;
34019;SDS011;20895;51.034;3.742;2022-09-09T01:18:08;7.05;;;1.92;;
34019;SDS011;20895;51.034;3.742;2022-09-09T01:23:28;3.15;;;1.52;;
34019;SDS011;20895;51.034;3.742;2022-09-09T01:28:33;5.63;;;2.40;;
34019;SDS011;20895;51.034;3.742;2022-09-09T01:31:00;5.15;;;1.90;;
34019;SDS011;20895;51.034;3.742;2022-09-09T01:33:26;9.05;;;1.98;;
34019;SDS011;20895;51.034;3.742;2022-09-09T01:35:59;6.00;;;2.08;;
34019;SDS011;20895;51.034;3.742;2022-09-09T01:38:25;6.88;;;2.45;;
34019;SDS011;20895;51.034;3.742;2022-09-09T01:40:51;5.43;;;1.83;;
34019;SDS011;20895;51.034;3.742;2022-09-09T01:43:18;6.38;;;2.40;;
34019;SDS011;20895;51.034;3.742;2022-09-09T01:45:43;5.63;;;1.90;;
34019;SDS011;20895;51.034;3.742;2022-09-09T01:48:09;6.18;;;1.88;;
34019;SDS011;20895;51.034;3.742;2022-09-09T01:50:34;4.88;;;1.73;;
34019;SDS011;20895;51.034;3.742;2022-09-09T01:53:00;5.25;;;1.95;;
34019;SDS011;20895;51.034;3.742;2022-09-09T01:55:30;5.00;;;2.03;;
34019;SDS011;20895;51.034;3.742;2022-09-09T01:58:17;8.25;;;2.22;;
34019;SDS011;20895;51.034;3.742;2022-09-09T02:00:51;6.80;;;2.20;;
34019;SDS011;20895;51.034;3.742;2022-09-09T02:05:45;6.35;;;1.88;;
34019;SDS011;20895;51.034;3.742;2022-09-09T02:08:15;6.13;;;1.60;;
34019;SDS011;20895;51.034;3.742;2022-09-09T02:13:20;8.07;;;2.10;;
34019;SDS011;20895;51.034;3.742;2022-09-09T02:18:11;12.00;;;2.45;;
34019;SDS011;20895;51.034;3.742;2022-09-09T02:20:38;6.90;;;2.63;;
34019;SDS011;20895;51.034;3.742;2022-09-09T02:23:05;6.22;;;2.47;;
34019;SDS011;20895;51.034;3.742;2022-09-09T02:25:30;4.95;;;1.92;;
34019;SDS011;20895;51.034;3.742;2022-09-09T02:27:58;6.20;;;2.20;;
34019;SDS011;20895;51.034;3.742;2022-09-09T02:30:23;7.03;;;2.35;;
34019;SDS011;20895;51.034;3.742;2022-09-09T02:32:49;6.00;;;2.03;;
34019;SDS011;20895;51.034;3.742;2022-09-09T02:35:17;7.35;;;2.20;;
34019;SDS011;20895;51.034;3.742;2022-09-09T02:37:45;6.97;;;1.83;;
34019;SDS011;20895;51.034;3.742;2022-09-09T02:40:15;4.32;;;1.50;;
34019;SDS011;20895;51.034;3.742;2022-09-09T02:42:41;6.65;;;1.80;;
34019;SDS011;20895;51.034;3.742;2022-09-09T02:45:07;6.40;;;1.88;;
34019;SDS011;20895;51.034;3.742;2022-09-09T02:47:37;7.25;;;2.33;;
34019;SDS011;20895;51.034;3.742;2022-09-09T02:54:58;11.23;;;2.97;;
34019;SDS011;20895;51.034;3.742;2022-09-09T02:57:27;8.60;;;1.90;;
34019;SDS011;20895;51.034;3.742;2022-09-09T02:59:55;7.57;;;2.47;;
34019;SDS011;20895;51.034;3.742;2022-09-09T03:02:21;9.27;;;2.15;;
34019;SDS011;20895;51.034;3.742;2022-09-09T03:04:47;8.75;;;2.03;;
34019;SDS011;20895;51.034;3.742;2022-09-09T03:07:16;7.30;;;2.20;;
34019;SDS011;20895;51.034;3.742;2022-09-09T03:09:42;8.20;;;2.17;;
34019;SDS011;20895;51.034;3.742;2022-09-09T03:12:07;7.15;;;2.42;;
34019;SDS011;20895;51.034;3.742;2022-09-09T03:14:32;9.05;;;2.28;;
34019;SDS011;20895;51.034;3.742;2022-09-09T03:16:57;7.68;;;2.17;;
34019;SDS011;20895;51.034;3.742;2022-09-09T03:19:25;10.75;;;2.63;;
34019;SDS011;20895;51.034;3.742;2022-09-09T03:21:51;10.50;;;2.95;;
34019;SDS011;20895;51.034;3.742;2022-09-09T03:24:16;7.38;;;2.13;;
34019;SDS011;20895;51.034;3.742;2022-09-09T03:26:42;7.25;;;1.70;;
34019;SDS011;20895;51.034;3.742;2022-09-09T03:29:09;7.05;;;3.03;;
34019;SDS011;20895;51.034;3.742;2022-09-09T03:31:35;9.05;;;3.17;;
34019;SDS011;20895;51.034;3.742;2022-09-09T03:34:01;7.93;;;2.22;;
34019;SDS011;20895;51.034;3.742;2022-09-09T03:36:26;8.52;;;2.67;;
34019;SDS011;20895;51.034;3.742;2022-09-09T03:38:53;10.27;;;2.70;;
34019;SDS011;20895;51.034;3.742;2022-09-09T03:41:19;9.88;;;2.35;;
34019;SDS011;20895;51.034;3.742;2022-09-09T03:43:44;10.30;;;2.00;;
34019;SDS011;20895;51.034;3.742;2022-09-09T03:46:10;8.10;;;2.28;;
34019;SDS011;20895;51.034;3.742;2022-09-09T03:48:35;12.23;;;2.55;;
34019;SDS011;20895;51.034;3.742;2022-09-09T03:51:01;7.32;;;2.45;;
34019;SDS011;20895;51.034;3.742;2022-09-09T03:53:27;6.45;;;2.15;;
34019;SDS011;20895;51.034;3.742;2022-09-09T03:55:53;11.65;;;2.38;;
34019;SDS011;20895;51.034;3.742;2022-09-09T03:58:24;13.75;;;2.95;;
34019;SDS011;20895;51.034;3.742;2022-09-09T04:00:58;8.32;;;2.97;;
34019;SDS011;20895;51.034;3.742;2022-09-09T04:03:24;10.18;;;2.70;;
34019;SDS011;20895;51.034;3.742;2022-09-09T04:05:50;15.18;;;2.65;;
34019;SDS011;20895;51.034;3.742;2022-09-09T04:08:16;9.35;;;2.85;;
34019;SDS011;20895;51.034;3.742;2022-09-09T04:10:41;9.38;;;2.33;;
34019;SDS011;20895;51.034;3.742;2022-09-09T04:13:07;9.13;;;2.22;;
34019;SDS011;20895;51.034;3.742;2022-09-09T04:15:32;9.82;;;2.35;;
34019;SDS011;20895;51.034;3.742;2022-09-09T04:17:58;11.55;;;2.97;;
34019;SDS011;20895;51.034;3.742;2022-09-09T04:20:23;8.07;;;1.77;;
34019;SDS011;20895;51.034;3.742;2022-09-09T04:22:49;14.55;;;2.63;;
34019;SDS011;20895;51.034;3.742;2022-09-09T04:25:14;8.73;;;2.20;;
34019;SDS011;20895;51.034;3.742;2022-09-09T04:27:39;9.57;;;2.40;;
34019;SDS011;20895;51.034;3.742;2022-09-09T04:30:05;11.23;;;1.90;;
34019;SDS011;20895;51.034;3.742;2022-09-09T04:32:32;7.95;;;2.08;;
34019;SDS011;20895;51.034;3.742;2022-09-09T04:34:57;7.75;;;2.42;;
34019;SDS011;20895;51.034;3.742;2022-09-09T04:37:22;11.48;;;2.90;;
34019;SDS011;20895;51.034;3.742;2022-09-09T04:39:49;11.30;;;3.25;;
34019;SDS011;20895;51.034;3.742;2022-09-09T04:42:15;23.90;;;4.78;;
34019;SDS011;20895;51.034;3.742;2022-09-09T04:44:41;10.60;;;1.98;;
34019;SDS011;20895;51.034;3.742;2022-09-09T04:47:06;6.63;;;1.73;;
34019;SDS011;20895;51.034;3.742;2022-09-09T04:49:31;9.07;;;2.92;;
34019;SDS011;20895;51.034;3.742;2022-09-09T04:51:57;9.50;;;2.28;;
34019;SDS011;20895;51.034;3.742;2022-09-09T04:54:22;14.13;;;4.88;;
34019;SDS011;20895;51.034;3.742;2022-09-09T04:56:49;7.47;;;2.00;;
34019;SDS011;20895;51.034;3.742;2022-09-09T04:59:15;8.23;;;2.15;;
34019;SDS011;20895;51.034;3.742;2022-09-09T05:01:40;12.43;;;4.20;;
34019;SDS011;20895;51.034;3.742;2022-09-09T05:04:06;9.05;;;2.10;;
34019;SDS011;20895;51.034;3.742;2022-09-09T05:06:31;9.38;;;2.35;;
34019;SDS011;20895;51.034;3.742;2022-09-09T05:08:56;9.25;;;2.45;;
34019;SDS011;20895;51.034;3.742;2022-09-09T05:13:52;11.82;;;3.45;;
34019;SDS011;20895;51.034;3.742;2022-09-09T05:16:18;14.50;;;3.35;;
34019;SDS011;20895;51.034;3.742;2022-09-09T05:18:43;10.40;;;2.75;;
34019;SDS011;20895;51.034;3.742;2022-09-09T05:21:09;6.80;;;2.65;;
34019;SDS011;20895;51.034;3.742;2022-09-09T05:23:35;18.20;;;4.47;;
34019;SDS011;20895;51.034;3.742;2022-09-09T05:26:00;11.70;;;3.55;;
34019;SDS011;20895;51.034;3.742;2022-09-09T05:28:26;8.18;;;2.22;;
34019;SDS011;20895;51.034;3.742;2022-09-09T05:30:55;11.00;;;3.03;;
34019;SDS011;20895;51.034;3.742;2022-09-09T05:33:20;12.90;;;3.05;;
34019;SDS011;20895;51.034;3.742;2022-09-09T05:35:46;16.50;;;3.15;;
34019;SDS011;20895;51.034;3.742;2022-09-09T05:38:11;7.68;;;2.72;;
34019;SDS011;20895;51.034;3.742;2022-09-09T05:40:37;10.00;;;2.28;;
34019;SDS011;20895;51.034;3.742;2022-09-09T05:43:02;9.82;;;2.15;;
34019;SDS011;20895;51.034;3.742;2022-09-09T05:45:27;8.90;;;2.55;;
34019;SDS011;20895;51.034;3.742;2022-09-09T05:47:53;10.30;;;3.80;;
34019;SDS011;20895;51.034;3.742;2022-09-09T05:50:18;12.38;;;2.75;;
34019;SDS011;20895;51.034;3.742;2022-09-09T05:52:43;10.82;;;2.45;;
34019;SDS011;20895;51.034;3.742;2022-09-09T05:55:09;10.85;;;2.40;;
34019;SDS011;20895;51.034;3.742;2022-09-09T05:57:34;7.63;;;2.40;;
34019;SDS011;20895;51.034;3.742;2022-09-09T06:00:00;8.77;;;2.85;;
34019;SDS011;20895;51.034;3.742;2022-09-09T06:02:25;10.85;;;3.35;;
34019;SDS011;20895;51.034;3.742;2022-09-09T06:04:51;8.32;;;2.45;;
34019;SDS011;20895;51.034;3.742;2022-09-09T06:07:16;9.90;;;2.53;;
34019;SDS011;20895;51.034;3.742;2022-09-09T06:09:42;7.72;;;2.75;;
34019;SDS011;20895;51.034;3.742;2022-09-09T06:12:07;11.20;;;2.78;;
34019;SDS011;20895;51.034;3.742;2022-09-09T06:14:32;11.55;;;2.63;;
34019;SDS011;20895;51.034;3.742;2022-09-09T06:16:57;10.63;;;2.97;;
34019;SDS011;20895;51.034;3.742;2022-09-09T06:19:23;14.02;;;3.75;;
34019;SDS011;20895;51.034;3.742;2022-09-09T06:21:51;9.55;;;2.45;;
34019;SDS011;20895;51.034;3.742;2022-09-09T06:24:16;9.73;;;2.38;;
34019;SDS011;20895;51.034;3.742;2022-09-09T06:26:42;9.52;;;2.42;;
34019;SDS011;20895;51.034;3.742;2022-09-09T06:29:07;14.27;;;3.53;;
34019;SDS011;20895;51.034;3.742;2022-09-09T06:31:33;9.18;;;2.42;;
34019;SDS011;20895;51.034;3.742;2022-09-09T06:33:59;15.13;;;4.47;;
34019;SDS011;20895;51.034;3.742;2022-09-09T06:36:26;9.65;;;3.65;;
34019;SDS011;20895;51.034;3.742;2022-09-09T06:38:51;8.93;;;3.40;;
34019;SDS011;20895;51.034;3.742;2022-09-09T06:41:17;10.18;;;2.95;;
34019;SDS011;20895;51.034;3.742;2022-09-09T06:43:43;13.82;;;2.72;;
34019;SDS011;20895;51.034;3.742;2022-09-09T06:46:11;11.13;;;3.92;;
34019;SDS011;20895;51.034;3.742;2022-09-09T06:48:36;8.10;;;2.35;;
34019;SDS011;20895;51.034;3.742;2022-09-09T06:51:13;8.18;;;2.85;;
34019;SDS011;20895;51.034;3.742;2022-09-09T06:53:39;7.60;;;2.17;;
34019;SDS011;20895;51.034;3.742;2022-09-09T06:58:43;8.55;;;2.83;;
34019;SDS011;20895;51.034;3.742;2022-09-09T07:01:09;12.48;;;2.67;;
34019;SDS011;20895;51.034;3.742;2022-09-09T07:03:35;10.45;;;2.28;;
34019;SDS011;20895;51.034;3.742;2022-09-09T07:06:00;14.75;;;2.53;;
34019;SDS011;20895;51.034;3.742;2022-09-09T07:08:26;12.27;;;2.75;;
34019;SDS011;20895;51.034;3.742;2022-09-09T07:10:52;11.68;;;3.45;;
34019;SDS011;20895;51.034;3.742;2022-09-09T07:13:23;10.77;;;2.55;;
34019;SDS011;20895;51.034;3.742;2022-09-09T07:15:50;10.23;;;2.55;;
34019;SDS011;20895;51.034;3.742;2022-09-09T07:18:15;9.80;;;2.75;;
34019;SDS011;20895;51.034;3.742;2022-09-09T07:20:40;9.88;;;3.28;;
34019;SDS011;20895;51.034;3.742;2022-09-09T07:23:06;8.07;;;2.50;;
34019;SDS011;20895;51.034;3.742;2022-09-09T07:25:31;10.63;;;2.83;;
34019;SDS011;20895;51.034;3.742;2022-09-09T07:27:56;11.43;;;3.45;;
34019;SDS011;20895;51.034;3.742;2022-09-09T07:30:22;10.73;;;3.22;;
34019;SDS011;20895;51.034;3.742;2022-09-09T07:32:47;11.27;;;4.15;;
34019;SDS011;20895;51.034;3.742;2022-09-09T07:35:12;8.90;;;2.40;;
34019;SDS011;20895;51.034;3.742;2022-09-09T07:37:38;11.70;;;3.70;;
34019;SDS011;20895;51.034;3.742;2022-09-09T07:40:03;10.70;;;2.60;;
34019;SDS011;20895;51.034;3.742;2022-09-09T07:42:29;7.63;;;2.05;;
34019;SDS011;20895;51.034;3.742;2022-09-09T07:44:55;10.68;;;2.50;;
34019;SDS011;20895;51.034;3.742;2022-09-09T07:47:20;5.90;;;2.38;;
34019;SDS011;20895;51.034;3.742;2022-09-09T07:49:45;8.63;;;2.30;;
34019;SDS011;20895;51.034;3.742;2022-09-09T07:52:11;7.40;;;1.98;;
34019;SDS011;20895;51.034;3.742;2022-09-09T07:54:36;7.63;;;2.05;;
34019;SDS011;20895;51.034;3.742;2022-09-09T07:57:02;11.40;;;2.67;;
34019;SDS011;20895;51.034;3.742;2022-09-09T07:59:29;10.02;;;2.08;;
34019;SDS011;20895;51.034;3.742;2022-09-09T08:01:54;7.45;;;2.33;;
34019;SDS011;20895;51.034;3.742;2022-09-09T08:04:20;9.88;;;2.38;;
34019;SDS011;20895;51.034;3.742;2022-09-09T08:06:50;9.23;;;2.15;;
34019;SDS011;20895;51.034;3.742;2022-09-09T08:09:18;10.52;;;2.45;;
34019;SDS011;20895;51.034;3.742;2022-09-09T08:11:43;8.40;;;2.30;;
34019;SDS011;20895;51.034;3.742;2022-09-09T08:14:09;7.15;;;3.47;;
34019;SDS011;20895;51.034;3.742;2022-09-09T08:16:36;9.07;;;2.35;;
34019;SDS011;20895;51.034;3.742;2022-09-09T08:19:02;8.48;;;2.33;;
34019;SDS011;20895;51.034;3.742;2022-09-09T08:21:28;7.95;;;3.25;;
34019;SDS011;20895;51.034;3.742;2022-09-09T08:23:54;7.60;;;2.15;;
34019;SDS011;20895;51.034;3.742;2022-09-09T08:26:21;7.80;;;2.75;;
34019;SDS011;20895;51.034;3.742;2022-09-09T08:28:47;12.98;;;2.63;;
34019;SDS011;20895;51.034;3.742;2022-09-09T08:31:14;8.13;;;2.78;;
34019;SDS011;20895;51.034;3.742;2022-09-09T08:33:39;8.18;;;2.63;;
34019;SDS011;20895;51.034;3.742;2022-09-09T08:36:06;8.07;;;1.95;;
34019;SDS011;20895;51.034;3.742;2022-09-09T08:38:34;12.77;;;2.00;;
34019;SDS011;20895;51.034;3.742;2022-09-09T08:43:40;7.30;;;2.15;;
34019;SDS011;20895;51.034;3.742;2022-09-09T08:46:11;8.77;;;2.63;;
34019;SDS011;20895;51.034;3.742;2022-09-09T08:48:54;4.28;;;1.67;;
34019;SDS011;20895;51.034;3.742;2022-09-09T08:51:21;6.72;;;1.95;;
34019;SDS011;20895;51.034;3.742;2022-09-09T08:53:50;8.77;;;1.55;;
34019;SDS011;20895;51.034;3.742;2022-09-09T08:56:16;10.30;;;2.33;;
34019;SDS011;20895;51.034;3.742;2022-09-09T08:58:47;11.23;;;2.45;;
34019;SDS011;20895;51.034;3.742;2022-09-09T09:01:35;4.68;;;1.80;;
34019;SDS011;20895;51.034;3.742;2022-09-09T09:09:35;8.48;;;2.30;;
34019;SDS011;20895;51.034;3.742;2022-09-09T09:12:06;6.57;;;1.63;;
34019;SDS011;20895;51.034;3.742;2022-09-09T09:14:34;6.93;;;1.90;;
34019;SDS011;20895;51.034;3.742;2022-09-09T09:17:01;5.60;;;1.65;;
34019;SDS011;20895;51.034;3.742;2022-09-09T09:19:28;8.40;;;2.85;;
34019;SDS011;20895;51.034;3.742;2022-09-09T09:29:47;4.15;;;1.30;;
34019;SDS011;20895;51.034;3.742;2022-09-09T09:32:16;6.30;;;2.55;;
34019;SDS011;20895;51.034;3.742;2022-09-09T09:34:42;8.57;;;2.00;;
34019;SDS011;20895;51.034;3.742;2022-09-09T09:37:15;6.65;;;1.85;;
34019;SDS011;20895;51.034;3.742;2022-09-09T09:39:44;6.88;;;2.10;;
34019;SDS011;20895;51.034;3.742;2022-09-09T09:42:14;8.52;;;1.88;;
34019;SDS011;20895;51.034;3.742;2022-09-09T09:44:40;5.68;;;1.90;;
34019;SDS011;20895;51.034;3.742;2022-09-09T09:47:13;4.20;;;1.70;;
34019;SDS011;20895;51.034;3.742;2022-09-09T09:49:39;7.82;;;2.30;;
34019;SDS011;20895;51.034;3.742;2022-09-09T09:52:15;6.97;;;2.28;;
34019;SDS011;20895;51.034;3.742;2022-09-09T09:54:43;5.40;;;2.33;;
34019;SDS011;20895;51.034;3.742;2022-09-09T09:57:12;7.50;;;2.20;;
34019;SDS011;20895;51.034;3.742;2022-09-09T09:59:38;5.35;;;1.73;;
34019;SDS011;20895;51.034;3.742;2022-09-09T10:02:31;6.25;;;1.80;;
34019;SDS011;20895;51.034;3.742;2022-09-09T10:07:36;6.13;;;2.00;;
34019;SDS011;20895;51.034;3.742;2022-09-09T10:10:02;5.20;;;1.45;;
34019;SDS011;20895;51.034;3.742;2022-09-09T10:15:07;6.13;;;2.08;;
34019;SDS011;20895;51.034;3.742;2022-09-09T10:20:21;6.40;;;2.03;;
34019;SDS011;20895;51.034;3.742;2022-09-09T10:22:51;4.20;;;1.55;;
34019;SDS011;20895;51.034;3.742;2022-09-09T10:25:20;4.28;;;1.63;;
34019;SDS011;20895;51.034;3.742;2022-09-09T10:35:35;7.22;;;1.50;;
34019;SDS011;20895;51.034;3.742;2022-09-09T10:49:03;3.22;;;1.30;;
34019;SDS011;20895;51.034;3.742;2022-09-09T10:51:40;2.95;;;1.45;;
34019;SDS011;20895;51.034;3.742;2022-09-09T10:56:37;4.68;;;2.00;;
34019;SDS011;20895;51.034;3.742;2022-09-09T11:01:32;4.85;;;1.38;;
34019;SDS011;20895;51.034;3.742;2022-09-09T11:06:29;5.78;;;1.90;;
34019;SDS011;20895;51.034;3.742;2022-09-09T11:08:55;5.82;;;1.45;;
34019;SDS011;20895;51.034;3.742;2022-09-09T11:11:34;3.80;;;1.40;;
34019;SDS011;20895;51.034;3.742;2022-09-09T11:14:14;4.72;;;1.50;;
34019;SDS011;20895;51.034;3.742;2022-09-09T11:21:47;2.50;;;1.20;;
34019;SDS011;20895;51.034;3.742;2022-09-09T11:24:23;2.70;;;1.50;;
34019;SDS011;20895;51.034;3.742;2022-09-09T11:26:53;6.10;;;1.30;;
34019;SDS011;20895;51.034;3.742;2022-09-09T11:29:28;4.05;;;1.20;;
34019;SDS011;20895;51.034;3.742;2022-09-09T11:32:01;4.70;;;1.30;;
34019;SDS011;20895;51.034;3.742;2022-09-09T11:39:44;3.80;;;1.13;;
34019;SDS011;20895;51.034;3.742;2022-09-09T11:44:38;4.47;;;0.85;;
34019;SDS011;20895;51.034;3.742;2022-09-09T11:47:03;7.30;;;1.50;;
34019;SDS011;20895;51.034;3.742;2022-09-09T11:49:29;3.03;;;1.00;;
34019;SDS011;20895;51.034;3.742;2022-09-09T11:52:11;3.72;;;1.13;;
34019;SDS011;20895;51.034;3.742;2022-09-09T11:54:44;1.55;;;0.80;;
34019;SDS011;20895;51.034;3.742;2022-09-09T11:57:32;6.20;;;1.55;;
34019;SDS011;20895;51.034;3.742;2022-09-09T11:59:56;3.63;;;1.23;;
34019;SDS011;20895;51.034;3.742;2022-09-09T12:02:25;4.22;;;1.13;;
34019;SDS011;20895;51.034;3.742;2022-09-09T12:05:04;4.38;;;1.08;;
34019;SDS011;20895;51.034;3.742;2022-09-09T12:10:05;3.17;;;1.25;;
34019;SDS011;20895;51.034;3.742;2022-09-09T12:12:35;5.13;;;1.20;;
34019;SDS011;20895;51.034;3.742;2022-09-09T12:17:45;3.13;;;1.30;;
34019;SDS011;20895;51.034;3.742;2022-09-09T12:20:19;7.47;;;1.40;;
34019;SDS011;20895;51.034;3.742;2022-09-09T12:30:22;2.85;;;1.00;;
34019;SDS011;20895;51.034;3.742;2022-09-09T12:33:00;2.35;;;1.17;;
34019;SDS011;20895;51.034;3.742;2022-09-09T12:35:26;3.10;;;1.15;;
34019;SDS011;20895;51.034;3.742;2022-09-09T12:40:26;1.88;;;1.10;;
34019;SDS011;20895;51.034;3.742;2022-09-09T12:42:52;3.42;;;1.20;;
34019;SDS011;20895;51.034;3.742;2022-09-09T12:45:21;2.90;;;1.63;;
34019;SDS011;20895;51.034;3.742;2022-09-09T12:47:48;3.78;;;0.95;;
34019;SDS011;20895;51.034;3.742;2022-09-09T12:50:21;3.85;;;1.17;;
34019;SDS011;20895;51.034;3.742;2022-09-09T12:52:47;4.20;;;1.13;;
34019;SDS011;20895;51.034;3.742;2022-09-09T12:55:20;2.83;;;1.20;;
34019;SDS011;20895;51.034;3.742;2022-09-09T12:57:46;2.95;;;1.27;;
34019;SDS011;20895;51.034;3.742;2022-09-09T13:00:16;7.60;;;1.30;;
34019;SDS011;20895;51.034;3.742;2022-09-09T13:03:00;2.13;;;1.15;;
34019;SDS011;20895;51.034;3.742;2022-09-09T13:07:51;3.75;;;1.30;;
34019;SDS011;20895;51.034;3.742;2022-09-09T13:10:21;4.82;;;1.33;;
34019;SDS011;20895;51.034;3.742;2022-09-09T13:12:48;4.47;;;1.58;;
34019;SDS011;20895;51.034;3.742;2022-09-09T13:15:18;5.45;;;1.83;;
34019;SDS011;20895;51.034;3.742;2022-09-09T13:17:49;3.35;;;1.08;;
34019;SDS011;20895;51.034;3.742;2022-09-09T13:20:18;2.78;;;1.33;;
34019;SDS011;20895;51.034;3.742;2022-09-09T13:22:44;4.15;;;1.38;;
34019;SDS011;20895;51.034;3.742;2022-09-09T13:27:36;6.75;;;1.70;;
34019;SDS011;20895;51.034;3.742;2022-09-09T13:30:19;3.72;;;1.17;;
34019;SDS011;20895;51.034;3.742;2022-09-09T13:32:47;2.33;;;0.90;;
34019;SDS011;20895;51.034;3.742;2022-09-09T13:35:23;4.57;;;1.30;;
34019;SDS011;20895;51.034;3.742;2022-09-09T13:37:48;4.78;;;1.17;;
34019;SDS011;20895;51.034;3.742;2022-09-09T13:40:17;2.33;;;1.00;;
34019;SDS011;20895;51.034;3.742;2022-09-09T13:42:43;6.82;;;1.65;;
34019;SDS011;20895;51.034;3.742;2022-09-09T13:45:17;2.47;;;1.10;;
34019;SDS011;20895;51.034;3.742;2022-09-09T13:50:20;2.97;;;1.02;;
34019;SDS011;20895;51.034;3.742;2022-09-09T13:52:49;5.75;;;1.25;;
34019;SDS011;20895;51.034;3.742;2022-09-09T13:55:16;3.92;;;1.08;;
34019;SDS011;20895;51.034;3.742;2022-09-09T13:57:52;4.38;;;1.05;;
34019;SDS011;20895;51.034;3.742;2022-09-09T14:00:17;5.10;;;1.13;;
34019;SDS011;20895;51.034;3.742;2022-09-09T14:02:43;4.55;;;1.17;;
34019;SDS011;20895;51.034;3.742;2022-09-09T14:05:09;3.15;;;0.82;;
34019;SDS011;20895;51.034;3.742;2022-09-09T14:07:34;5.15;;;1.33;;
34019;SDS011;20895;51.034;3.742;2022-09-09T14:09:59;6.47;;;2.35;;
34019;SDS011;20895;51.034;3.742;2022-09-09T14:12:25;3.38;;;0.90;;
34019;SDS011;20895;51.034;3.742;2022-09-09T14:14:50;5.90;;;1.55;;
34019;SDS011;20895;51.034;3.742;2022-09-09T14:17:15;5.72;;;1.25;;
34019;SDS011;20895;51.034;3.742;2022-09-09T14:19:41;6.05;;;1.40;;
34019;SDS011;20895;51.034;3.742;2022-09-09T14:22:07;9.38;;;1.67;;
34019;SDS011;20895;51.034;3.742;2022-09-09T14:24:32;4.95;;;2.00;;
34019;SDS011;20895;51.034;3.742;2022-09-09T14:26:58;3.58;;;1.77;;
34019;SDS011;20895;51.034;3.742;2022-09-09T14:29:23;5.82;;;1.50;;
34019;SDS011;20895;51.034;3.742;2022-09-09T14:31:50;2.03;;;0.93;;
34019;SDS011;20895;51.034;3.742;2022-09-09T14:34:15;5.70;;;1.80;;
34019;SDS011;20895;51.034;3.742;2022-09-09T14:36:40;3.05;;;2.30;;
34019;SDS011;20895;51.034;3.742;2022-09-09T14:39:06;4.25;;;1.30;;
34019;SDS011;20895;51.034;3.742;2022-09-09T14:41:32;3.95;;;1.02;;
34019;SDS011;20895;51.034;3.742;2022-09-09T14:43:57;3.27;;;0.93;;
34019;SDS011;20895;51.034;3.742;2022-09-09T14:46:22;3.53;;;0.82;;
34019;SDS011;20895;51.034;3.742;2022-09-09T14:48:48;3.03;;;1.00;;
34019;SDS011;20895;51.034;3.742;2022-09-09T14:51:17;3.35;;;0.90;;
34019;SDS011;20895;51.034;3.742;2022-09-09T14:53:44;6.20;;;1.10;;
34019;SDS011;20895;51.034;3.742;2022-09-09T14:56:18;3.65;;;1.02;;
34019;SDS011;20895;51.034;3.742;2022-09-09T14:58:43;2.83;;;0.80;;
34019;SDS011;20895;51.034;3.742;2022-09-09T15:01:13;4.32;;;0.90;;
34019;SDS011;20895;51.034;3.742;2022-09-09T15:03:39;8.73;;;1.48;;
34019;SDS011;20895;51.034;3.742;2022-09-09T15:06:09;3.53;;;0.88;;
34019;SDS011;20895;51.034;3.742;2022-09-09T15:08:35;3.35;;;0.82;;
34019;SDS011;20895;51.034;3.742;2022-09-09T15:11:01;5.25;;;1.05;;
34019;SDS011;20895;51.034;3.742;2022-09-09T15:13:27;3.88;;;1.02;;
34019;SDS011;20895;51.034;3.742;2022-09-09T15:15:52;1.70;;;0.77;;
34019;SDS011;20895;51.034;3.742;2022-09-09T15:18:19;2.85;;;0.80;;
34019;SDS011;20895;51.034;3.742;2022-09-09T15:20:44;2.13;;;0.80;;
34019;SDS011;20895;51.034;3.742;2022-09-09T15:23:11;2.60;;;0.82;;
34019;SDS011;20895;51.034;3.742;2022-09-09T15:25:36;1.90;;;0.82;;
34019;SDS011;20895;51.034;3.742;2022-09-09T15:28:01;2.20;;;0.80;;
34019;SDS011;20895;51.034;3.742;2022-09-09T15:30:26;1.92;;;0.82;;
34019;SDS011;20895;51.034;3.742;2022-09-09T15:32:52;2.03;;;0.40;;
34019;SDS011;20895;51.034;3.742;2022-09-09T15:35:17;3.72;;;1.08;;
34019;SDS011;20895;51.034;3.742;2022-09-09T15:37:43;2.15;;;0.90;;
34019;SDS011;20895;51.034;3.742;2022-09-09T15:40:08;1.20;;;0.90;;
34019;SDS011;20895;51.034;3.742;2022-09-09T15:42:34;2.75;;;1.20;;
34019;SDS011;20895;51.034;3.742;2022-09-09T15:44:59;2.15;;;0.80;;
34019;SDS011;20895;51.034;3.742;2022-09-09T15:47:25;3.55;;;1.00;;
34019;SDS011;20895;51.034;3.742;2022-09-09T15:49:50;5.40;;;1.33;;
34019;SDS011;20895;51.034;3.742;2022-09-09T15:52:15;3.30;;;1.40;;
34019;SDS011;20895;51.034;3.742;2022-09-09T15:54:40;3.58;;;1.30;;
34019;SDS011;20895;51.034;3.742;2022-09-09T15:57:09;3.45;;;1.20;;
34019;SDS011;20895;51.034;3.742;2022-09-09T15:59:36;4.00;;;1.27;;
34019;SDS011;20895;51.034;3.742;2022-09-09T16:02:01;3.42;;;1.15;;
34019;SDS011;20895;51.034;3.742;2022-09-09T16:04:27;3.97;;;1.33;;
34019;SDS011;20895;51.034;3.742;2022-09-09T16:06:55;4.63;;;1.50;;
34019;SDS011;20895;51.034;3.742;2022-09-09T16:09:21;2.28;;;1.15;;
34019;SDS011;20895;51.034;3.742;2022-09-09T16:11:46;2.95;;;1.20;;
34019;SDS011;20895;51.034;3.742;2022-09-09T16:14:12;3.95;;;1.35;;
34019;SDS011;20895;51.034;3.742;2022-09-09T16:16:38;3.60;;;1.23;;
34019;SDS011;20895;51.034;3.742;2022-09-09T16:19:05;4.68;;;1.10;;
34019;SDS011;20895;51.034;3.742;2022-09-09T16:21:32;3.05;;;2.38;;
34019;SDS011;20895;51.034;3.742;2022-09-09T16:24:00;3.20;;;1.20;;
34019;SDS011;20895;51.034;3.742;2022-09-09T16:26:27;2.78;;;1.02;;
34019;SDS011;20895;51.034;3.742;2022-09-09T16:28:53;4.43;;;2.13;;
34019;SDS011;20895;51.034;3.742;2022-09-09T16:31:20;3.05;;;1.30;;
34019;SDS011;20895;51.034;3.742;2022-09-09T16:33:45;3.47;;;1.42;;
34019;SDS011;20895;51.034;3.742;2022-09-09T16:36:21;4.45;;;1.73;;
34019;SDS011;20895;51.034;3.742;2022-09-09T16:38:47;4.25;;;1.40;;
34019;SDS011;20895;51.034;3.742;2022-09-09T16:41:13;5.53;;;1.85;;
34019;SDS011;20895;51.034;3.742;2022-09-09T16:43:39;4.45;;;1.77;;
34019;SDS011;20895;51.034;3.742;2022-09-09T16:48:36;2.45;;;1.40;;
34019;SDS011;20895;51.034;3.742;2022-09-09T16:51:03;4.65;;;1.42;;
34019;SDS011;20895;51.034;3.742;2022-09-09T16:53:30;3.20;;;1.48;;
34019;SDS011;20895;51.034;3.742;2022-09-09T16:55:55;3.42;;;1.42;;
34019;SDS011;20895;51.034;3.742;2022-09-09T16:58:20;4.75;;;1.42;;
34019;SDS011;20895;51.034;3.742;2022-09-09T17:00:46;6.27;;;1.87;;
34019;SDS011;20895;51.034;3.742;2022-09-09T17:03:12;3.95;;;1.60;;
34019;SDS011;20895;51.034;3.742;2022-09-09T17:05:41;2.75;;;1.30;;